Time;durP1;ratioP1;P1;durP2;ratioP2;P2;SDS_P1;SDS_P2;PMS_P1;PMS_P2;Temp;Humidity;BMP_temperature;BMP_pressure;BME280_temperature;BME280_humidity;BME280_pressure;Samples;Min_cycle;Max_cycle;Signal;HPM_P1;HPM_P2
2022/06/18 00:00:17;;;;;;;2.53;2.03;;;24.30;99.90;;;;;;5016859;28;20041;-66
2022/06/18 00:02:43;;;;;;;2.47;1.90;;;24.20;99.90;;;;;;5016859;28;20335;-66
2022/06/18 00:05:12;;;;;;;3.88;2.17;;;24.20;99.90;;;;;;5019974;28;20104;-66
2022/06/18 00:07:43;;;;;;;5.75;2.58;;;24.10;99.90;;;;;;5020942;28;20038;-66
2022/06/18 00:10:14;;;;;;;3.67;2.08;;;24.00;99.90;;;;;;5020785;28;20116;-66
2022/06/18 00:15:41;;;;;;;2.40;2.20;;;23.90;99.90;;;;;;5009178;28;20072;-66
2022/06/18 00:18:11;;;;;;;2.85;2.30;;;23.90;99.90;;;;;;5020582;28;20026;-66
2022/06/18 00:20:39;;;;;;;8.45;2.15;;;23.90;99.90;;;;;;5021027;28;20044;-65
2022/06/18 00:23:13;;;;;;;2.88;2.00;;;23.80;99.90;;;;;;5020389;28;20042;-65
2022/06/18 00:25:41;;;;;;;6.22;2.40;;;23.70;99.90;;;;;;5020334;28;20113;-65
2022/06/18 00:28:20;;;;;;;3.53;2.50;;;23.80;99.90;;;;;;5020384;28;20018;-65
2022/06/18 00:30:47;;;;;;;3.72;2.33;;;23.70;99.90;;;;;;5003152;28;20029;-65
2022/06/18 00:33:13;;;;;;;3.72;2.20;;;23.70;99.90;;;;;;5020514;28;20100;-66
2022/06/18 00:35:40;;;;;;;4.88;2.30;;;23.60;99.90;;;;;;5020221;28;20042;-65
2022/06/18 00:38:07;;;;;;;6.05;2.33;;;23.50;99.90;;;;;;5019475;28;20048;-66
2022/06/18 00:40:40;;;;;;;3.45;2.35;;;23.40;99.90;;;;;;5020413;28;20469;-66
2022/06/18 00:43:27;;;;;;;;;;;23.30;99.90;;;;;;5020478;28;20037;-65
2022/06/18 00:46:04;;;;;;;6.13;2.20;;;23.40;99.90;;;;;;5035618;28;19913;-64
2022/06/18 00:48:40;;;;;;;3.35;2.20;;;23.40;99.90;;;;;;5020308;28;20386;-66
2022/06/18 00:51:14;;;;;;;4.75;2.40;;;23.30;99.90;;;;;;5020575;28;20144;-65
2022/06/18 00:53:46;;;;;;;3.67;2.67;;;23.40;99.90;;;;;;5019875;28;20037;-65
2022/06/18 00:56:33;;;;;;;6.03;2.30;;;23.50;99.90;;;;;;5020398;28;20444;-64
2022/06/18 00:59:07;;;;;;;5.97;2.75;;;23.50;99.90;;;;;;5019839;28;20112;-66
2022/06/18 01:01:37;;;;;;;5.68;2.47;;;23.60;99.90;;;;;;5019726;28;20037;-65
2022/06/18 01:04:27;;;;;;;4.25;2.20;;;23.60;99.90;;;;;;5019664;28;20405;-67
2022/06/18 01:07:17;;;;;;;6.18;2.08;;;23.60;99.90;;;;;;5018907;28;20044;-65
2022/06/18 01:09:46;;;;;;;3.97;2.63;;;23.60;99.90;;;;;;5019634;28;20030;-66
2022/06/18 01:12:13;;;;;;;5.75;2.38;;;23.60;99.90;;;;;;5018711;28;20034;-66
2022/06/18 01:14:41;;;;;;;5.20;2.42;;;23.50;99.90;;;;;;5019651;28;20080;-66
2022/06/18 01:17:07;;;;;;;5.90;2.80;;;23.50;99.90;;;;;;5018712;28;20133;-66
2022/06/18 01:19:44;;;;;;;5.18;2.55;;;23.50;99.90;;;;;;5035044;28;20065;-66
2022/06/18 01:22:47;;;;;;;2.75;2.20;;;23.50;99.90;;;;;;5018641;28;20037;-67
2022/06/18 01:25:13;;;;;;;4.53;2.60;;;23.50;99.90;;;;;;5018396;28;20057;-65
2022/06/18 01:27:42;;;;;;;4.72;2.65;;;23.50;99.90;;;;;;5018552;28;20026;-66
2022/06/18 01:30:21;;;;;;;3.92;2.75;;;23.50;99.90;;;;;;5018493;28;20037;-66
2022/06/18 01:32:51;;;;;;;4.03;2.50;;;23.40;99.90;;;;;;5018399;28;20290;-65
2022/06/18 01:35:18;;;;;;;3.78;2.50;;;23.30;99.90;;;;;;5034795;28;20058;-66
2022/06/18 01:38:11;;;;;;;4.80;2.70;;;23.30;99.90;;;;;;5017795;28;20406;-66
2022/06/18 01:41:49;;;;;;;5.28;2.97;;;23.30;99.90;;;;;;5018258;28;20109;-66
2022/06/18 01:43:48;;;;;;;3.17;2.70;;;23.20;99.90;;;;;;5018200;28;20351;-65
2022/06/18 01:46:15;;;;;;;5.00;2.33;;;23.20;99.90;;;;;;5018192;28;20018;-66
2022/06/18 01:48:43;;;;;;;4.70;2.85;;;23.10;99.90;;;;;;5018086;28;20345;-64
2022/06/18 01:51:10;;;;;;;4.18;2.70;;;23.10;99.90;;;;;;5018845;28;20092;-66
2022/06/18 01:53:49;;;;;;;4.82;2.65;;;23.10;99.90;;;;;;5018012;28;20030;-66
2022/06/18 01:56:22;;;;;;;3.97;3.10;;;23.10;99.90;;;;;;5019015;28;20297;-66
2022/06/18 01:58:55;;;;;;;3.17;2.83;;;23.10;99.90;;;;;;5018294;28;20400;-66
2022/06/18 02:01:33;;;;;;;3.42;2.78;;;23.10;99.90;;;;;;5018073;28;20120;-66
2022/06/18 02:04:02;;;;;;;2.97;2.67;;;23.10;99.90;;;;;;5018035;28;20091;-67
2022/06/18 02:06:30;;;;;;;6.95;2.72;;;23.00;99.90;;;;;;5017719;28;20057;-65
2022/06/18 02:08:56;;;;;;;4.63;2.65;;;23.00;99.90;;;;;;5017741;28;20064;-66
2022/06/18 02:11:23;;;;;;;2.88;2.58;;;23.00;99.90;;;;;;5017876;28;20038;-65
2022/06/18 02:13:57;;;;;;;5.43;2.67;;;23.00;99.90;;;;;;5018457;28;20116;-67
2022/06/18 02:16:27;;;;;;;3.90;2.70;;;23.00;99.90;;;;;;5018107;28;20125;-67
2022/06/18 02:18:53;;;;;;;4.20;2.65;;;23.00;99.90;;;;;;5034530;28;20125;-67
2022/06/18 02:21:24;;;;;;;4.13;2.17;;;23.00;99.90;;;;;;5017412;28;20078;-65
2022/06/18 02:23:51;;;;;;;6.10;3.03;;;23.00;99.90;;;;;;5017418;28;20517;-67
2022/06/18 02:26:18;;;;;;;5.38;2.53;;;23.00;99.90;;;;;;5018091;28;20509;-67
2022/06/18 02:28:45;;;;;;;6.63;3.00;;;23.00;99.90;;;;;;5018129;28;20040;-66
2022/06/18 02:31:16;;;;;;;6.30;2.75;;;23.00;99.90;;;;;;5018274;28;20034;-66
2022/06/18 02:33:50;;;;;;;4.10;2.80;;;22.90;99.90;;;;;;5017399;28;20051;-68
2022/06/18 02:36:29;;;;;;;6.22;2.67;;;22.90;99.90;;;;;;5018030;28;20337;-67
2022/06/18 02:39:08;;;;;;;3.63;2.55;;;22.90;99.90;;;;;;5018017;28;20030;-65
2022/06/18 02:41:37;;;;;;;4.45;2.80;;;22.70;99.90;;;;;;5017911;28;20105;-65
2022/06/18 02:44:03;;;;;;;4.95;3.05;;;22.80;99.90;;;;;;5033502;28;20026;-66
2022/06/18 02:46:28;;;;;;;4.15;2.83;;;22.70;99.90;;;;;;5017862;28;20065;-67
2022/06/18 02:49:00;;;;;;;5.32;2.70;;;22.60;99.90;;;;;;5017087;28;20283;-67
2022/06/18 02:51:28;;;;;;;7.05;3.00;;;22.60;99.90;;;;;;5017772;28;20045;-67
2022/06/18 02:53:53;;;;;;;4.35;3.00;;;22.60;99.90;;;;;;5017155;28;20038;-66
2022/06/18 02:56:20;;;;;;;8.02;3.08;;;22.60;99.90;;;;;;5016830;28;20038;-65
2022/06/18 02:58:48;;;;;;;3.40;3.10;;;22.60;99.90;;;;;;5033495;28;20076;-66
2022/06/18 03:01:20;;;;;;;5.63;3.03;;;22.60;99.90;;;;;;5017555;28;20030;-66
2022/06/18 03:03:49;;;;;;;5.15;3.10;;;22.50;99.90;;;;;;5016953;28;20022;-67
2022/06/18 03:06:16;;;;;;;6.05;3.22;;;22.50;99.90;;;;;;5016774;28;20288;-66
2022/06/18 03:08:46;;;;;;;6.75;2.92;;;22.50;99.90;;;;;;5017445;28;20026;-66
2022/06/18 03:13:57;;;;;;;4.93;3.10;;;22.50;99.90;;;;;;5016663;28;20038;-66
2022/06/18 03:16:24;;;;;;;5.28;3.38;;;22.50;99.90;;;;;;5018143;28;20022;-66
2022/06/18 03:18:54;;;;;;;6.45;3.42;;;22.40;99.90;;;;;;5018393;28;20049;-67
2022/06/18 03:21:44;;;;;;;6.00;3.38;;;22.40;99.90;;;;;;5016467;28;20026;-67
2022/06/18 03:24:10;;;;;;;8.23;3.58;;;22.40;99.90;;;;;;5017415;28;20046;-66
2022/06/18 03:26:37;;;;;;;5.07;3.33;;;22.30;99.90;;;;;;5016349;28;20122;-65
2022/06/18 03:29:07;;;;;;;5.00;3.20;;;22.30;99.90;;;;;;5016286;28;20033;-66
2022/06/18 03:31:34;;;;;;;4.45;3.47;;;22.30;99.90;;;;;;5016851;28;20061;-67
2022/06/18 03:34:01;;;;;;;6.07;3.10;;;22.20;99.90;;;;;;5016151;28;20037;-66
2022/06/18 03:36:27;;;;;;;4.47;2.90;;;22.20;99.90;;;;;;5032799;28;20117;-67
2022/06/18 03:38:53;;;;;;;5.57;3.50;;;22.20;99.90;;;;;;5015669;28;20129;-65
2022/06/18 03:41:21;;;;;;;5.75;3.38;;;22.20;99.90;;;;;;5016238;28;20045;-65
2022/06/18 03:43:49;;;;;;;4.13;3.50;;;22.20;99.90;;;;;;5016294;28;20107;-66
2022/06/18 03:46:17;;;;;;;9.45;3.42;;;22.30;99.90;;;;;;5016266;28;20061;-66
2022/06/18 03:49:01;;;;;;;4.35;2.97;;;22.20;99.90;;;;;;5017034;28;20391;-67
2022/06/18 03:51:35;;;;;;;6.32;2.92;;;22.20;99.90;;;;;;5016348;28;20033;-66
2022/06/18 03:54:02;;;;;;;5.93;3.40;;;22.20;99.90;;;;;;5016191;28;20030;-66
2022/06/18 03:56:31;;;;;;;5.93;3.20;;;22.10;99.90;;;;;;5016015;28;20092;-66
2022/06/18 03:58:58;;;;;;;5.00;3.05;;;22.20;99.90;;;;;;4999900;28;20321;-66
2022/06/18 04:01:27;;;;;;;8.25;3.22;;;22.20;99.90;;;;;;5015999;28;20026;-67
2022/06/18 04:03:53;;;;;;;7.13;3.20;;;22.20;99.90;;;;;;5016937;28;20026;-66
2022/06/18 04:06:28;;;;;;;6.57;2.97;;;22.20;99.90;;;;;;5016090;28;20030;-67
2022/06/18 04:08:55;;;;;;;5.25;3.13;;;22.20;99.90;;;;;;5016425;28;20041;-66
2022/06/18 04:11:24;;;;;;;6.10;3.05;;;22.20;99.90;;;;;;5016002;28;20030;-66
2022/06/18 04:13:50;;;;;;;7.78;3.45;;;22.30;99.90;;;;;;4999881;28;20034;-66
2022/06/18 04:16:34;;;;;;;6.25;3.10;;;22.30;99.90;;;;;;5017112;28;20110;-66
2022/06/18 04:19:10;;;;;;;4.47;3.00;;;22.50;99.90;;;;;;5016352;28;20410;-66
2022/06/18 04:21:36;;;;;;;5.35;3.17;;;22.50;99.90;;;;;;5016893;28;20057;-67
2022/06/18 04:24:03;;;;;;;5.43;3.08;;;22.50;99.90;;;;;;5015800;28;20073;-67
2022/06/18 04:26:29;;;;;;;5.30;3.20;;;22.40;99.90;;;;;;5015912;28;20037;-67
2022/06/18 04:28:56;;;;;;;5.30;2.90;;;22.30;99.90;;;;;;5015964;28;20109;-67
2022/06/18 04:31:23;;;;;;;5.78;3.42;;;22.40;99.90;;;;;;5016966;28;20180;-67
2022/06/18 04:33:50;;;;;;;5.60;3.17;;;22.50;99.90;;;;;;5015899;28;20049;-66
2022/06/18 04:36:29;;;;;;;7.13;3.13;;;22.50;99.90;;;;;;5016551;28;20313;-66
2022/06/18 04:38:56;;;;;;;5.13;2.95;;;22.60;99.90;;;;;;5015925;28;20310;-67
2022/06/18 04:41:37;;;;;;;5.28;3.15;;;22.60;99.90;;;;;;5015729;28;20036;-65
2022/06/18 04:44:10;;;;;;;7.38;3.17;;;22.50;99.90;;;;;;5015696;28;20037;-66
2022/06/18 04:46:37;;;;;;;7.72;3.30;;;22.60;99.90;;;;;;5015693;28;20066;-67
2022/06/18 04:49:03;;;;;;;4.55;3.08;;;22.60;99.90;;;;;;5016471;28;20119;-66
2022/06/18 04:51:29;;;;;;;7.05;3.67;;;22.70;99.90;;;;;;5019151;28;20456;-66
2022/06/18 04:53:56;;;;;;;5.45;3.10;;;22.70;99.90;;;;;;5020116;28;20366;-66
2022/06/18 04:56:23;;;;;;;7.30;2.88;;;22.90;99.90;;;;;;5019080;28;20049;-66
2022/06/18 04:58:49;;;;;;;6.63;3.60;;;23.00;99.90;;;;;;5019961;28;20417;-66
2022/06/18 05:01:18;;;;;;;5.47;3.00;;;23.10;99.90;;;;;;5018997;28;20095;-66
2022/06/18 05:03:47;;;;;;;7.15;3.03;;;23.00;99.90;;;;;;5020179;28;20409;-65
2022/06/18 05:06:24;;;;;;;5.13;3.00;;;22.90;99.90;;;;;;5018867;28;20036;-66
2022/06/18 05:09:15;;;;;;;10.53;3.47;;;23.00;99.90;;;;;;5012051;28;20391;-67
2022/06/18 05:11:57;;;;;;;7.13;3.00;;;23.00;99.90;;;;;;5018897;28;20314;-67
2022/06/18 05:14:39;;;;;;;6.70;3.42;;;22.90;99.90;;;;;;5019962;28;20099;-65
2022/06/18 05:17:21;;;;;;;5.85;3.17;;;23.00;99.90;;;;;;5019475;28;20054;-66
2022/06/18 05:19:48;;;;;;;4.10;3.28;;;23.20;99.90;;;;;;5018817;28;20033;-66
2022/06/18 05:22:15;;;;;;;6.30;3.50;;;23.10;99.90;;;;;;5018625;28;20038;-66
2022/06/18 05:24:41;;;;;;;4.80;3.30;;;23.00;99.90;;;;;;5018487;28;20108;-67
2022/06/18 05:27:26;;;;;;;9.75;3.40;;;23.10;99.90;;;;;;5018633;28;20129;-66
2022/06/18 05:29:54;;;;;;;6.10;3.17;;;23.10;99.90;;;;;;5019335;28;20037;-66
2022/06/18 05:32:22;;;;;;;9.75;3.80;;;23.20;99.90;;;;;;5018392;28;20029;-66
2022/06/18 05:34:48;;;;;;;5.82;3.55;;;23.30;99.90;;;;;;5019115;28;20030;-66
2022/06/18 05:37:16;;;;;;;10.70;3.75;;;23.30;99.90;;;;;;5034828;28;20025;-66
2022/06/18 05:39:42;;;;;;;8.38;3.80;;;23.50;99.90;;;;;;5019468;28;20041;-66
2022/06/18 05:42:09;;;;;;;4.50;3.25;;;23.40;99.90;;;;;;5018191;28;20306;-66
2022/06/18 05:44:36;;;;;;;4.68;3.20;;;23.40;99.90;;;;;;5018222;28;20022;-67
2022/06/18 05:47:10;;;;;;;6.97;3.60;;;23.40;99.90;;;;;;5019205;28;20029;-67
2022/06/18 05:49:36;;;;;;;6.32;3.25;;;23.50;99.90;;;;;;5019089;28;20029;-68
2022/06/18 05:52:02;;;;;;;4.88;3.35;;;23.50;99.90;;;;;;5018142;28;20425;-67
2022/06/18 05:54:28;;;;;;;4.38;3.10;;;23.60;99.90;;;;;;5019474;28;20057;-68
2022/06/18 05:57:21;;;;;;;7.20;3.15;;;23.70;99.90;;;;;;5021436;28;20053;-68
2022/06/18 06:00:18;;;;;;;4.57;3.40;;;23.80;99.90;;;;;;5014755;28;20046;-65
2022/06/18 06:02:49;;;;;;;4.05;2.95;;;23.70;99.90;;;;;;5016981;28;20120;-65
2022/06/18 06:05:16;;;;;;;6.80;4.10;;;23.80;99.90;;;;;;5019969;28;20058;-65
2022/06/18 06:07:44;;;;;;;7.63;3.55;;;23.90;99.90;;;;;;5018696;28;20040;-66
2022/06/18 06:13:11;;;;;;;7.88;3.65;;;24.00;99.90;;;;;;5017724;28;20045;-66
2022/06/18 06:15:39;;;;;;;5.50;3.30;;;24.20;99.90;;;;;;5017726;28;20030;-66
2022/06/18 06:18:06;;;;;;;5.30;3.50;;;24.30;99.90;;;;;;5018390;28;20037;-67
2022/06/18 06:20:34;;;;;;;6.40;3.63;;;24.30;99.90;;;;;;5018422;28;20033;-65
2022/06/18 06:23:00;;;;;;;8.13;3.47;;;24.10;99.90;;;;;;5018915;28;20018;-67
2022/06/18 06:25:26;;;;;;;6.97;4.03;;;24.20;99.90;;;;;;5021079;28;20084;-67
2022/06/18 06:27:52;;;;;;;7.88;3.80;;;24.20;99.90;;;;;;5021317;28;20125;-67
2022/06/18 06:30:18;;;;;;;9.45;4.05;;;24.20;99.90;;;;;;5021974;28;20034;-67
2022/06/18 06:32:44;;;;;;;8.40;4.03;;;24.00;99.90;;;;;;5019897;28;20414;-67
2022/06/18 06:35:11;;;;;;;7.68;4.05;;;24.00;99.90;;;;;;5021272;28;20041;-65
2022/06/18 06:37:37;;;;;;;9.57;3.88;;;24.10;99.90;;;;;;5018794;28;20040;-69
2022/06/18 06:40:04;;;;;;;8.00;3.38;;;24.10;99.90;;;;;;5019023;28;20038;-68
2022/06/18 06:42:30;;;;;;;7.57;3.40;;;24.10;99.90;;;;;;5017396;28;20021;-66
2022/06/18 06:44:56;;;;;;;13.95;4.28;;;24.00;99.90;;;;;;5037938;28;20068;-68
2022/06/18 06:47:22;;;;;;;8.85;4.60;;;24.10;99.90;;;;;;5018814;28;20034;-67
2022/06/18 06:49:47;;;;;;;7.65;3.85;;;24.30;99.90;;;;;;5019032;28;20433;-67
2022/06/18 06:52:13;;;;;;;11.25;4.32;;;24.40;99.90;;;;;;5019847;28;20119;-69
2022/06/18 06:54:39;;;;;;;9.57;3.75;;;24.70;99.90;;;;;;5019587;28;20088;-69
2022/06/18 06:57:24;;;;;;;7.15;3.53;;;24.80;99.90;;;;;;5018428;28;20038;-68
2022/06/18 06:59:49;;;;;;;5.93;3.40;;;24.80;99.90;;;;;;5017398;28;20100;-67
2022/06/18 07:02:19;;;;;;;10.88;4.28;;;24.80;99.90;;;;;;5017790;28;20038;-67
2022/06/18 07:04:45;;;;;;;10.25;4.05;;;24.50;99.90;;;;;;5018905;28;20041;-67
2022/06/18 07:07:14;;;;;;;7.45;3.90;;;24.50;99.90;;;;;;5022411;28;20321;-67
2022/06/18 07:09:40;;;;;;;7.35;4.10;;;24.70;99.90;;;;;;5021196;28;20087;-68
2022/06/18 07:12:08;;;;;;;10.65;4.15;;;24.80;99.90;;;;;;5022536;28;20022;-67
2022/06/18 07:14:36;;;;;;;8.65;3.55;;;25.20;99.90;;;;;;5018633;28;20432;-66
2022/06/18 07:17:02;;;;;;;6.55;3.78;;;25.30;99.90;;;;;;5021168;28;20145;-66
2022/06/18 07:19:28;;;;;;;8.00;4.13;;;25.40;99.90;;;;;;5022626;28;20360;-66
2022/06/18 07:21:54;;;;;;;10.85;3.75;;;24.90;99.90;;;;;;5018546;28;20035;-68
2022/06/18 07:24:20;;;;;;;7.82;4.20;;;24.80;99.90;;;;;;5018218;28;20111;-67
2022/06/18 07:26:47;;;;;;;9.18;3.88;;;24.50;99.90;;;;;;5018103;28;20428;-67
2022/06/18 07:29:13;;;;;;;10.13;3.72;;;24.50;99.90;;;;;;5018663;28;20156;-68
2022/06/18 07:31:39;;;;;;;6.65;3.92;;;24.80;99.90;;;;;;5017537;28;20030;-67
2022/06/18 07:34:06;;;;;;;7.75;4.03;;;24.80;99.90;;;;;;5020161;28;20099;-67
2022/06/18 07:36:33;;;;;;;9.55;4.40;;;25.00;99.90;;;;;;5017854;28;20305;-66
2022/06/18 07:39:04;;;;;;;7.63;4.40;;;24.50;99.90;;;;;;5017898;28;20037;-66
2022/06/18 07:41:39;;;;;;;8.32;4.10;;;24.50;99.90;;;;;;5017111;28;20034;-66
2022/06/18 07:44:05;;;;;;;8.48;3.83;;;24.80;99.90;;;;;;5033433;28;20041;-66
2022/06/18 07:46:31;;;;;;;9.75;4.35;;;25.00;99.90;;;;;;5022827;28;20026;-70
2022/06/18 07:48:57;;;;;;;10.35;4.60;;;25.00;99.90;;;;;;5018191;28;20077;-66
2022/06/18 07:51:24;;;;;;;9.65;4.05;;;25.00;99.90;;;;;;5019431;28;20414;-68
2022/06/18 07:53:51;;;;;;;8.93;3.97;;;24.80;99.90;;;;;;5001243;28;20040;-66
2022/06/18 07:56:17;;;;;;;11.60;4.50;;;24.70;99.90;;;;;;5017512;28;20040;-67
2022/06/18 07:58:43;;;;;;;12.05;3.90;;;24.60;99.90;;;;;;5017656;28;20282;-67
2022/06/18 08:01:09;;;;;;;8.38;4.03;;;24.70;99.90;;;;;;5017857;28;20041;-67
2022/06/18 08:03:35;;;;;;;13.70;5.10;;;25.00;99.90;;;;;;5019510;28;20038;-67
2022/06/18 08:06:02;;;;;;;14.07;4.65;;;25.10;99.90;;;;;;5017207;28;20018;-65
2022/06/18 08:08:28;;;;;;;13.18;4.55;;;25.20;99.90;;;;;;5017079;28;20441;-68
2022/06/18 08:10:54;;;;;;;13.75;4.75;;;25.40;99.90;;;;;;5017609;28;20034;-66
2022/06/18 08:13:20;;;;;;;15.10;4.53;;;25.20;99.90;;;;;;5017405;28;20177;-66
2022/06/18 08:15:47;;;;;;;13.77;4.72;;;25.20;99.90;;;;;;5017770;28;20041;-65
2022/06/18 08:18:13;;;;;;;11.52;4.88;;;25.20;99.90;;;;;;5017234;28;20037;-68
2022/06/18 08:20:41;;;;;;;10.88;4.95;;;25.20;99.90;;;;;;5017621;28;20046;-67
2022/06/18 08:23:07;;;;;;;9.55;4.78;;;25.40;99.90;;;;;;5016794;28;20041;-67
2022/06/18 08:25:37;;;;;;;11.70;5.00;;;25.40;99.90;;;;;;5019509;28;20065;-67
2022/06/18 08:28:05;;;;;;;14.48;5.13;;;25.40;99.90;;;;;;5020628;28;20042;-67
2022/06/18 08:30:32;;;;;;;11.60;4.88;;;25.30;99.90;;;;;;5021052;28;20057;-67
2022/06/18 08:32:57;;;;;;;8.48;3.83;;;25.40;99.90;;;;;;5021223;28;20038;-67
2022/06/18 08:35:24;;;;;;;11.10;4.60;;;25.60;99.90;;;;;;5024800;28;20056;-67
2022/06/18 08:37:51;;;;;;;7.85;3.92;;;25.80;99.90;;;;;;5021958;28;20042;-67
2022/06/18 08:40:37;;;;;;;10.70;4.30;;;26.20;99.90;;;;;;5020284;28;20042;-67
2022/06/18 08:43:42;;;;;;;11.00;3.80;;;26.30;99.90;;;;;;5019401;28;20034;-66
2022/06/18 08:46:45;;;;;;;12.98;4.55;;;26.00;99.90;;;;;;5011185;28;20042;-68
2022/06/18 08:49:46;;;;;;;12.85;4.38;;;26.40;99.90;;;;;;5025744;28;20029;-65
2022/06/18 08:52:32;;;;;;;7.15;4.20;;;26.60;99.90;;;;;;5020128;28;20029;-68
2022/06/18 08:55:03;;;;;;;8.60;3.80;;;26.90;99.90;;;;;;5021969;28;20074;-68
2022/06/18 08:57:41;;;;;;;12.30;4.00;;;26.90;99.90;;;;;;5020910;28;20045;-67
2022/06/18 09:00:31;;;;;;;10.88;3.90;;;26.80;99.90;;;;;;5020290;28;20029;-67
2022/06/18 09:03:24;;;;;;;9.50;3.80;;;26.80;99.90;;;;;;5014009;28;20108;-67
2022/06/18 09:06:15;;;;;;;10.25;4.15;;;26.70;99.90;;;;;;5019841;28;20022;-68
2022/06/18 09:09:01;;;;;;;12.60;3.78;;;26.60;99.90;;;;;;5020014;28;20404;-67
2022/06/18 09:11:50;;;;;;;7.57;3.60;;;26.60;99.90;;;;;;5019709;28;20393;-67
2022/06/18 09:14:25;;;;;;;10.25;4.10;;;26.90;99.90;;;;;;5020407;28;20064;-69
2022/06/18 09:17:15;;;;;;;12.65;4.10;;;27.10;99.90;;;;;;5021590;28;20030;-67
2022/06/18 09:19:44;;;;;;;8.60;3.72;;;27.60;99.90;;;;;;5020790;28;20041;-68
2022/06/18 09:22:19;;;;;;;12.55;3.83;;;27.60;99.90;;;;;;5020904;28;20042;-68
2022/06/18 09:24:48;;;;;;;11.80;3.95;;;27.30;99.90;;;;;;5019630;28;20318;-67
2022/06/18 09:27:22;;;;;;;10.35;4.10;;;27.30;99.90;;;;;;5020220;28;20041;-67
2022/06/18 09:30:29;;;;;;;13.15;3.95;;;27.70;99.90;;;;;;5021010;28;20041;-67
2022/06/18 09:33:08;;;;;;;8.50;3.60;;;28.10;99.90;;;;;;4949722;29;20035;-66
2022/06/18 09:35:42;;;;;;;10.38;3.50;;;28.20;99.90;;;;;;4968925;28;20314;-66
2022/06/18 09:38:22;;;;;;;10.32;3.50;;;28.50;99.90;;;;;;5010485;28;20046;-66
2022/06/18 09:41:01;;;;;;;10.15;3.92;;;28.20;99.90;;;;;;5020398;28;20421;-68
2022/06/18 09:43:42;;;;;;;11.10;3.88;;;28.30;99.90;;;;;;5025530;28;20128;-67
2022/06/18 09:46:41;;;;;;;13.20;3.75;;;28.50;99.90;;;;;;5022585;28;20030;-65
2022/06/18 09:49:07;;;;;;;8.13;3.88;;;28.30;99.90;;;;;;5021086;28;20291;-65
2022/06/18 09:51:47;;;;;;;8.70;3.50;;;28.30;99.90;;;;;;5019662;28;20056;-66
2022/06/18 09:54:16;;;;;;;10.77;3.97;;;28.60;99.90;;;;;;5019077;28;20029;-66
2022/06/18 09:56:54;;;;;;;9.13;3.30;;;28.80;99.90;;;;;;5019013;28;20030;-66
2022/06/18 09:59:34;;;;;;;15.30;4.65;;;28.60;99.90;;;;;;5018608;28;20369;-67
2022/06/18 10:02:01;;;;;;;7.57;3.78;;;28.40;99.90;;;;;;5020121;28;20401;-68
2022/06/18 10:07:17;;;;;;;9.10;3.33;;;28.50;99.90;;;;;;5019677;28;20394;-66
2022/06/18 10:09:51;;;;;;;10.13;3.30;;;29.10;99.90;;;;;;5019283;28;20025;-67
2022/06/18 10:12:25;;;;;;;13.18;3.97;;;29.50;99.90;;;;;;5021836;28;20065;-68
2022/06/18 10:15:07;;;;;;;7.68;3.75;;;29.80;99.90;;;;;;5019900;28;20121;-66
2022/06/18 10:18:10;;;;;;;8.65;3.50;;;30.10;99.90;;;;;;5020079;28;20125;-68
2022/06/18 10:20:54;;;;;;;12.75;3.60;;;29.90;99.90;;;;;;5019351;28;20026;-68
2022/06/18 10:23:26;;;;;;;9.88;3.33;;;29.90;99.90;;;;;;5020592;28;20029;-66
2022/06/18 10:26:35;;;;;;;14.15;3.63;;;30.00;99.90;;;;;;5018682;28;20297;-67
2022/06/18 10:29:27;;;;;;;8.30;3.60;;;30.20;99.90;;;;;;4986471;28;20148;-66
2022/06/18 10:32:17;;;;;;;10.05;3.80;;;30.00;99.90;;;;;;5020110;28;20095;-67
2022/06/18 10:34:49;;;;;;;11.60;4.10;;;29.50;99.90;;;;;;5019368;28;20049;-68
2022/06/18 10:37:54;;;;;;;9.90;3.53;;;29.20;99.90;;;;;;5020306;28;20393;-67
2022/06/18 10:40:46;;;;;;;7.68;3.35;;;29.00;99.90;;;;;;5018486;28;20037;-67
2022/06/18 10:43:55;;;;;;;11.75;3.75;;;29.30;99.90;;;;;;5018659;28;20033;-66
2022/06/18 10:46:22;;;;;;;12.25;3.80;;;29.70;99.90;;;;;;4985983;28;20046;-67
2022/06/18 10:49:03;;;;;;;11.18;3.60;;;30.20;99.90;;;;;;5019105;28;20034;-67
2022/06/18 10:51:41;;;;;;;9.43;3.40;;;30.50;99.90;;;;;;5021055;28;20064;-67
2022/06/18 10:54:07;;;;;;;12.40;3.88;;;30.40;99.90;;;;;;5019794;28;20029;-67
2022/06/18 10:56:46;;;;;;;10.30;3.78;;;30.70;99.90;;;;;;5018952;28;20051;-67
2022/06/18 10:59:12;;;;;;;12.68;3.90;;;31.30;99.90;;;;;;5017936;28;20405;-68
2022/06/18 11:01:44;;;;;;;10.98;3.90;;;31.50;99.90;;;;;;5020561;28;20085;-67
2022/06/18 11:04:19;;;;;;;;;;;31.40;99.90;;;;;;5022504;28;20037;-66
2022/06/18 11:06:46;;;;;;;11.98;3.60;;;31.30;99.90;;;;;;5034823;28;19910;-66
2022/06/18 11:09:33;;;;;;;15.05;3.40;;;32.00;99.90;;;;;;5019779;28;20034;-67
2022/06/18 11:12:18;;;;;;;9.10;3.20;;;33.00;99.90;;;;;;5020369;28;20033;-68
2022/06/18 11:14:44;;;;;;;10.85;3.58;;;33.30;99.90;;;;;;5019442;28;20099;-66
2022/06/18 11:17:43;;;;;;;13.25;3.08;;;33.00;99.90;;;;;;5019030;28;20037;-66
2022/06/18 11:20:15;;;;;;;9.60;3.30;;;33.50;98.90;;;;;;5018943;28;20385;-67
2022/06/18 11:22:42;;;;;;;8.13;3.20;;;34.00;98.40;;;;;;5017796;28;20037;-67
2022/06/18 11:25:24;;;;;;;13.40;3.20;;;34.70;97.30;;;;;;5019034;28;20049;-67
2022/06/18 11:27:52;;;;;;;7.88;2.83;;;34.30;97.30;;;;;;5018433;28;20064;-68
2022/06/18 11:30:40;;;;;;;10.52;3.15;;;34.40;95.90;;;;;;5018940;28;20030;-67
2022/06/18 11:33:16;;;;;;;12.20;3.25;;;36.40;94.60;;;;;;5022631;28;20017;-67
2022/06/18 11:35:42;;;;;;;13.50;3.30;;;37.30;91.60;;;;;;5018799;28;20490;-67
2022/06/18 11:38:27;;;;;;;10.48;3.17;;;38.40;88.30;;;;;;5018036;28;20065;-70
2022/06/18 11:40:55;;;;;;;9.48;2.83;;;40.30;85.00;;;;;;5018042;28;20034;-66
2022/06/18 11:43:24;;;;;;;6.55;2.92;;;41.00;77.90;;;;;;5017138;28;20124;-66
2022/06/18 11:45:57;;;;;;;6.60;2.80;;;41.90;70.70;;;;;;5017715;28;20286;-66
2022/06/18 11:48:44;;;;;;;6.70;2.80;;;42.20;64.50;;;;;;5017333;28;20302;-65
2022/06/18 11:51:35;;;;;;;8.63;3.05;;;42.10;62.60;;;;;;5017018;28;20294;-67
2022/06/18 11:54:10;;;;;;;9.80;3.43;;;41.10;62.70;;;;;;5022578;28;20272;-67
2022/06/18 11:57:13;;;;;;;8.43;3.30;;;38.10;67.80;;;;;;5017448;28;20370;-68
2022/06/18 11:59:53;;;;;;;8.07;2.80;;;38.80;68.80;;;;;;5020284;28;20065;-67
2022/06/18 12:02:57;;;;;;;11.63;3.40;;;39.00;67.20;;;;;;5025178;28;20121;-67
2022/06/18 12:05:31;;;;;;;10.13;3.63;;;37.90;69.60;;;;;;5012902;28;20077;-68
2022/06/18 12:08:00;;;;;;;10.23;3.80;;;36.20;72.60;;;;;;5023857;28;20041;-67
2022/06/18 12:10:35;;;;;;;9.35;3.28;;;36.70;73.40;;;;;;5024440;28;20125;-67
2022/06/18 12:13:13;;;;;;;6.97;3.15;;;36.40;73.60;;;;;;5022711;28;20100;-67
2022/06/18 12:16:10;;;;;;;14.60;3.22;;;36.60;73.50;;;;;;5022746;28;20121;-67
2022/06/18 12:19:00;;;;;;;8.65;3.17;;;37.30;71.10;;;;;;5020953;28;20030;-64
2022/06/18 12:21:43;;;;;;;9.93;3.15;;;38.40;69.90;;;;;;5021046;28;20118;-67
2022/06/18 12:24:33;;;;;;;10.65;3.03;;;39.50;64.30;;;;;;5020681;28;20483;-67
2022/06/18 12:27:12;;;;;;;9.80;3.00;;;40.70;63.00;;;;;;5024194;28;20390;-67
2022/06/18 12:30:08;;;;;;;9.05;3.28;;;39.30;61.80;;;;;;5023921;28;20070;-67
2022/06/18 12:33:12;;;;;;;8.73;3.30;;;37.80;66.40;;;;;;5019889;28;20042;-66
2022/06/18 12:35:45;;;;;;;13.73;3.13;;;39.50;65.70;;;;;;5117119;22;1125125;-66
2022/06/18 12:38:24;;;;;;;7.60;3.25;;;39.50;64.80;;;;;;5060915;28;20051;-66
2022/06/18 12:41:07;;;;;;;7.47;2.60;;;41.90;62.50;;;;;;5061357;28;20025;-66
2022/06/18 12:44:07;;;;;;;7.55;3.15;;;43.50;57.90;;;;;;5060788;28;20408;-67
2022/06/18 12:46:49;;;;;;;7.75;2.50;;;44.40;54.70;;;;;;5053024;28;20040;-67
2022/06/18 12:49:48;;;;;;;6.45;2.65;;;45.10;53.20;;;;;;5059906;28;20043;-67
2022/06/18 12:52:33;;;;;;;8.10;2.80;;;45.70;51.80;;;;;;5040872;28;20044;-67
2022/06/18 12:55:23;;;;;;;11.15;3.20;;;44.00;51.90;;;;;;5060288;28;20063;-66
2022/06/18 12:58:03;;;;;;;10.18;3.15;;;41.90;56.30;;;;;;5061795;28;20025;-66
2022/06/18 13:00:53;;;;;;;12.93;3.17;;;43.00;53.60;;;;;;5059841;28;20112;-67
2022/06/18 13:03:36;;;;;;;9.77;2.80;;;44.50;52.50;;;;;;5061353;28;20048;-68
2022/06/18 13:06:23;;;;;;;10.80;3.28;;;45.90;50.50;;;;;;5060116;28;20396;-67
2022/06/18 13:09:26;;;;;;;8.07;3.30;;;46.00;49.50;;;;;;5060182;28;20040;-67
2022/06/18 13:12:13;;;;;;;7.47;2.78;;;45.60;48.10;;;;;;5059093;28;20118;-67
2022/06/18 13:15:13;;;;;;;6.90;2.38;;;43.50;50.50;;;;;;5059234;28;20048;-67
2022/06/18 13:17:47;;;;;;;10.32;2.95;;;44.70;49.80;;;;;;5036201;28;20068;-67
2022/06/18 13:20:18;;;;;;;7.38;2.58;;;45.20;48.40;;;;;;5059309;28;20040;-67
2022/06/18 13:22:45;;;;;;;6.05;2.67;;;45.00;48.40;;;;;;5042151;28;20277;-66
2022/06/18 13:28:21;;;;;;;6.63;2.70;;;45.60;47.50;;;;;;5059696;28;20104;-68
2022/06/18 13:31:16;;;;;;;11.55;3.25;;;45.70;47.30;;;;;;5059846;28;20021;-67
2022/06/18 13:33:58;;;;;;;11.32;2.80;;;45.20;47.10;;;;;;5060581;28;20048;-67
2022/06/18 13:36:40;;;;;;;9.05;2.67;;;44.60;46.40;;;;;;5041643;28;20060;-66